Flight Briefing for CPX252

Departure Arrival
Washington Dulles International Airport (KIAD)
Click to view FAA NOTAMS
Chicago/Rockford International Airport (KRFD)
Click to view FAA NOTAMS
Departure Time Arrival Time
N/A N/A
Aircraft Distance
B767-300BDSF 626nm
Departure METAR Arrival METAR
KIAD 271152Z 33007KT 10SM BKN065 BKN140 BKN230 22/17 A2999 RMK AO2 SLP153 T02220172 10228 20206 53020 KRFD 271154Z 11006KT 10SM SCT250 14/09 A3001 RMK AO2 SLP159 70004 T01440094 10144 20128 56013 $
Suggested Route
BUNZZ3 RAMAY Q72 HACKS J149 FWA V340 OXI JOT


View recent IFR Routes data
Notes



Charts and Procedures

Charts for KIAD
No chart available
Charts for KRFD
No chart available

Windy.com Weather Map